createdAt,value
2018-08-13T00:00:15.962Z,0.00
2018-08-13T00:01:15.994Z,0.00
2018-08-13T00:02:16.028Z,0.00
2018-08-13T00:03:16.054Z,0.00
2018-08-13T00:04:16.082Z,0.00
2018-08-13T00:05:16.113Z,0.00
2018-08-13T00:06:16.147Z,0.00
2018-08-13T00:07:16.173Z,0.00
2018-08-13T00:08:16.204Z,0.00
2018-08-13T00:09:16.238Z,0.00
2018-08-13T00:10:16.266Z,0.00
2018-08-13T00:11:16.296Z,0.00
2018-08-13T00:12:16.329Z,0.00
2018-08-13T00:13:16.361Z,0.00
2018-08-13T00:14:16.390Z,0.00
2018-08-13T00:15:16.418Z,0.00
2018-08-13T00:16:16.449Z,0.00
2018-08-13T00:17:16.482Z,0.00
2018-08-13T00:18:16.511Z,0.00
2018-08-13T00:19:16.547Z,0.00
2018-08-13T00:20:16.572Z,0.00
2018-08-13T00:21:16.606Z,0.00
2018-08-13T00:22:16.633Z,0.00
2018-08-13T00:23:16.663Z,0.00
2018-08-13T00:24:16.698Z,0.00
2018-08-13T00:25:16.727Z,0.00
2018-08-13T00:26:16.755Z,0.00
2018-08-13T00:27:16.787Z,0.00
2018-08-13T00:28:16.820Z,0.00
2018-08-13T00:29:16.849Z,0.00
2018-08-13T00:30:16.877Z,0.00
2018-08-13T00:31:16.909Z,0.00
2018-08-13T00:32:16.940Z,0.00
2018-08-13T00:33:16.969Z,0.00
2018-08-13T00:34:17.000Z,0.00
2018-08-13T00:35:17.029Z,0.00
2018-08-13T00:36:17.063Z,0.00
2018-08-13T00:37:17.093Z,0.00
2018-08-13T00:38:17.123Z,0.00
2018-08-13T00:39:17.152Z,0.00
2018-08-13T00:40:17.182Z,0.00
2018-08-13T00:41:17.216Z,0.00
2018-08-13T00:42:17.246Z,0.00
2018-08-13T00:43:17.273Z,0.00
2018-08-13T00:44:17.307Z,0.00
2018-08-13T00:45:17.339Z,0.00
2018-08-13T00:46:17.367Z,0.00
2018-08-13T00:47:17.399Z,0.00
2018-08-13T00:48:17.427Z,0.00
2018-08-13T00:49:17.462Z,0.00
2018-08-13T00:50:17.489Z,0.00
2018-08-13T00:51:17.523Z,0.00
2018-08-13T00:52:17.550Z,0.00
2018-08-13T00:53:17.579Z,0.00
2018-08-13T00:54:17.615Z,0.00
2018-08-13T00:55:17.643Z,0.00
2018-08-13T00:56:17.671Z,0.00
2018-08-13T00:57:17.704Z,0.00
2018-08-13T00:58:17.736Z,0.00
2018-08-13T00:59:17.763Z,0.00
2018-08-13T01:00:17.795Z,0.00
2018-08-13T01:01:17.828Z,0.00
2018-08-13T01:02:17.856Z,0.00
2018-08-13T01:03:17.885Z,0.00
2018-08-13T01:04:17.916Z,0.00
2018-08-13T01:05:17.947Z,0.00
2018-08-13T01:06:17.982Z,0.00
2018-08-13T01:07:18.007Z,0.00
2018-08-13T01:08:18.040Z,0.00
2018-08-13T01:09:18.073Z,0.00
2018-08-13T01:10:18.102Z,0.00
2018-08-13T01:11:18.133Z,0.00
2018-08-13T01:12:18.160Z,0.00
2018-08-13T01:13:18.194Z,0.00
2018-08-13T01:14:18.226Z,0.00
2018-08-13T01:15:18.252Z,0.00
2018-08-13T01:16:18.284Z,0.00
2018-08-13T01:17:18.314Z,0.00
2018-08-13T01:18:18.344Z,0.00
2018-08-13T01:19:18.376Z,0.00
2018-08-13T01:20:18.406Z,0.00
2018-08-13T01:21:18.439Z,0.00
2018-08-13T01:22:18.470Z,0.00
2018-08-13T01:23:18.497Z,0.00
2018-08-13T01:24:18.530Z,0.00
2018-08-13T01:25:18.561Z,0.00
2018-08-13T01:26:18.592Z,0.00
2018-08-13T01:27:18.618Z,0.00
2018-08-13T01:28:18.651Z,0.00
2018-08-13T01:29:18.683Z,0.00
2018-08-13T01:30:18.714Z,0.00
2018-08-13T01:31:18.740Z,0.00
2018-08-13T01:32:18.771Z,0.00
2018-08-13T01:33:18.802Z,0.00
2018-08-13T01:34:18.832Z,0.00
2018-08-13T01:35:18.865Z,0.00
2018-08-13T01:36:18.895Z,0.00
2018-08-13T01:37:18.923Z,0.00
2018-08-13T01:38:18.957Z,0.00
2018-08-13T01:39:18.985Z,0.00
2018-08-13T01:40:19.014Z,0.00
2018-08-13T01:41:19.044Z,0.00
2018-08-13T01:42:19.077Z,0.00
2018-08-13T01:43:19.107Z,0.00
2018-08-13T01:44:19.135Z,0.00
2018-08-13T01:45:19.168Z,0.00
2018-08-13T01:46:19.196Z,0.00
2018-08-13T01:47:19.229Z,0.00
2018-08-13T01:48:19.257Z,0.00
2018-08-13T01:49:19.289Z,0.00
2018-08-13T01:50:19.318Z,0.00
2018-08-13T01:51:19.348Z,0.00
2018-08-13T01:52:19.380Z,0.00
2018-08-13T01:53:19.409Z,0.00
2018-08-13T01:54:19.441Z,0.00
2018-08-13T01:55:19.468Z,0.00
2018-08-13T01:56:19.500Z,0.00
2018-08-13T01:57:19.534Z,0.00
2018-08-13T01:58:19.565Z,0.00
2018-08-13T01:59:19.592Z,0.00
2018-08-13T02:00:19.622Z,0.00
2018-08-13T02:01:19.696Z,0.00
2018-08-13T02:02:19.681Z,0.00
2018-08-13T02:03:19.714Z,0.00
2018-08-13T02:04:19.742Z,0.00
2018-08-13T02:05:19.775Z,0.00
2018-08-13T02:06:19.806Z,0.00
2018-08-13T02:07:19.835Z,0.00
2018-08-13T02:08:19.870Z,0.00
2018-08-13T02:09:19.898Z,0.00
2018-08-13T02:10:19.926Z,0.00
2018-08-13T02:11:19.957Z,0.00
2018-08-13T02:12:19.990Z,0.00
2018-08-13T02:13:20.019Z,0.00
2018-08-13T02:14:20.048Z,0.00
2018-08-13T02:15:20.080Z,0.00
2018-08-13T02:16:20.110Z,0.00
2018-08-13T02:17:20.142Z,0.00
2018-08-13T02:18:20.169Z,0.00
2018-08-13T02:19:20.198Z,0.00
2018-08-13T02:20:20.231Z,0.00
2018-08-13T02:21:20.261Z,0.00
2018-08-13T02:22:20.290Z,0.00
2018-08-13T02:23:20.320Z,0.00
2018-08-13T02:24:20.351Z,0.00
2018-08-13T02:25:20.381Z,0.00
2018-08-13T02:26:20.413Z,0.00
2018-08-13T02:27:20.441Z,0.00
2018-08-13T02:28:20.474Z,0.00
2018-08-13T02:29:20.502Z,0.00
2018-08-13T02:30:20.536Z,0.00
2018-08-13T02:31:20.564Z,0.00
2018-08-13T02:32:20.596Z,0.00
2018-08-13T02:33:20.627Z,0.00
2018-08-13T02:34:20.654Z,0.00
2018-08-13T02:35:20.693Z,0.00
2018-08-13T02:36:20.716Z,0.00
2018-08-13T02:37:20.748Z,0.00
2018-08-13T02:38:20.776Z,0.00
2018-08-13T02:39:20.837Z,0.00
2018-08-13T02:40:20.836Z,0.00
2018-08-13T02:41:20.868Z,0.00
2018-08-13T02:42:20.897Z,0.00
2018-08-13T02:43:20.933Z,0.00
2018-08-13T02:44:20.957Z,0.00
2018-08-13T02:45:20.986Z,0.00
2018-08-13T02:46:21.020Z,0.00
2018-08-13T02:47:21.058Z,0.00
2018-08-13T02:48:21.081Z,0.00
2018-08-13T02:49:21.114Z,0.00
2018-08-13T02:50:21.141Z,0.00
2018-08-13T02:51:21.169Z,0.00
2018-08-13T02:52:21.205Z,0.00
2018-08-13T02:53:21.232Z,0.00
2018-08-13T02:54:21.261Z,0.00
2018-08-13T02:55:21.292Z,0.00
2018-08-13T02:56:21.319Z,0.00
2018-08-13T02:57:21.348Z,0.00
2018-08-13T02:58:21.380Z,0.00
2018-08-13T02:59:21.413Z,0.00
2018-08-13T03:00:21.442Z,0.00
2018-08-13T03:01:21.470Z,0.00
2018-08-13T03:02:21.508Z,0.00
2018-08-13T03:03:21.533Z,0.00
2018-08-13T03:04:21.561Z,0.00
2018-08-13T03:05:21.594Z,0.00
2018-08-13T03:06:21.623Z,0.00
2018-08-13T03:07:21.654Z,0.00
2018-08-13T03:08:21.684Z,0.00
2018-08-13T03:09:21.712Z,0.00
2018-08-13T03:10:21.744Z,0.00
2018-08-13T03:11:21.774Z,0.00
2018-08-13T03:12:21.802Z,0.00
2018-08-13T03:13:21.834Z,0.00
2018-08-13T03:14:21.865Z,0.00
2018-08-13T03:15:21.896Z,0.00
2018-08-13T03:16:21.925Z,0.00
2018-08-13T03:17:21.957Z,0.00
2018-08-13T03:18:21.987Z,0.00
2018-08-13T03:19:22.015Z,0.00
2018-08-13T03:20:22.044Z,0.00
2018-08-13T03:21:22.079Z,0.00
2018-08-13T03:22:22.106Z,0.00
2018-08-13T03:23:22.134Z,0.00
2018-08-13T03:24:22.166Z,0.00
2018-08-13T03:25:22.198Z,0.00
2018-08-13T03:26:22.225Z,0.00
2018-08-13T03:27:22.257Z,0.00
2018-08-13T03:28:22.288Z,0.00
2018-08-13T03:29:22.319Z,0.00
2018-08-13T03:30:22.350Z,0.00
2018-08-13T03:31:22.378Z,0.00
2018-08-13T03:32:22.406Z,0.00
2018-08-13T03:33:22.484Z,0.00
2018-08-13T03:34:22.469Z,0.00
2018-08-13T03:35:22.498Z,0.00
2018-08-13T03:36:22.527Z,0.00
2018-08-13T03:37:22.557Z,0.00
2018-08-13T03:38:22.588Z,0.00
2018-08-13T03:39:22.617Z,4.00
2018-08-13T03:40:22.651Z,4.00
2018-08-13T03:41:22.678Z,4.00
2018-08-13T03:42:22.709Z,4.00
2018-08-13T03:43:22.743Z,0.00
2018-08-13T03:44:22.768Z,4.00
2018-08-13T03:45:22.801Z,4.00
2018-08-13T03:46:22.830Z,4.00
2018-08-13T03:47:22.860Z,8.00
2018-08-13T03:48:22.890Z,4.00
2018-08-13T03:49:22.924Z,8.00
2018-08-13T03:50:22.953Z,4.00
2018-08-13T03:51:22.984Z,8.00
2018-08-13T03:52:23.011Z,8.00
2018-08-13T03:53:23.042Z,12.00
2018-08-13T03:54:23.076Z,12.00
2018-08-13T03:55:23.102Z,16.00
2018-08-13T03:56:23.136Z,16.00
2018-08-13T03:57:23.165Z,16.00
2018-08-13T03:58:23.199Z,20.00
2018-08-13T03:59:23.222Z,24.00
2018-08-13T04:00:23.252Z,28.00
2018-08-13T04:01:23.286Z,36.00
2018-08-13T04:02:23.315Z,44.00
2018-08-13T04:03:23.344Z,52.00
2018-08-13T04:04:23.380Z,60.00
2018-08-13T04:05:23.405Z,64.00
2018-08-13T04:06:23.436Z,68.00
2018-08-13T04:07:23.468Z,72.00
2018-08-13T04:08:23.498Z,80.00
2018-08-13T04:09:23.528Z,84.00
2018-08-13T04:10:23.560Z,88.00
2018-08-13T04:11:23.585Z,96.00
2018-08-13T04:12:23.620Z,100.00
2018-08-13T04:13:23.656Z,108.00
2018-08-13T04:14:23.680Z,108.00
2018-08-13T04:15:23.706Z,116.00
2018-08-13T04:16:23.737Z,116.00
2018-08-13T04:17:23.768Z,124.00
2018-08-13T04:18:23.799Z,132.00
2018-08-13T04:19:23.828Z,148.00
2018-08-13T04:20:23.861Z,164.00
2018-08-13T04:21:23.891Z,184.00
2018-08-13T04:22:23.923Z,200.00
2018-08-13T04:23:23.949Z,224.00
2018-08-13T04:24:23.978Z,248.00
2018-08-13T04:25:24.009Z,276.00
2018-08-13T04:26:24.043Z,316.00
2018-08-13T04:27:24.069Z,360.00
2018-08-13T04:28:24.100Z,408.00
2018-08-13T04:29:24.132Z,464.00
2018-08-13T04:30:24.163Z,520.00
2018-08-13T04:31:24.192Z,592.00
2018-08-13T04:32:24.230Z,676.00
2018-08-13T04:33:24.251Z,788.00
2018-08-13T04:34:24.284Z,924.00
2018-08-13T04:35:24.313Z,1072.00
2018-08-13T04:36:24.343Z,1228.00
2018-08-13T04:37:24.372Z,1384.00
2018-08-13T04:38:24.402Z,1544.00
2018-08-13T04:39:24.432Z,1688.00
2018-08-13T04:40:24.464Z,1808.00
2018-08-13T04:41:24.496Z,1956.00
2018-08-13T04:42:24.525Z,2104.00
2018-08-13T04:43:24.556Z,2164.00
2018-08-13T04:44:24.585Z,2152.00
2018-08-13T04:45:24.617Z,2076.00
2018-08-13T04:46:24.644Z,1948.00
2018-08-13T04:47:24.674Z,1812.00
2018-08-13T04:48:24.706Z,1716.00
2018-08-13T04:49:24.737Z,1656.00
2018-08-13T04:50:24.766Z,1552.00
2018-08-13T04:51:24.794Z,1432.00
2018-08-13T04:52:24.825Z,1316.00
2018-08-13T04:53:24.856Z,1208.00
2018-08-13T04:54:24.890Z,1120.00
2018-08-13T04:55:24.918Z,1040.00
2018-08-13T04:56:24.949Z,980.00
2018-08-13T04:57:24.977Z,916.00
2018-08-13T04:58:25.008Z,816.00
2018-08-13T04:59:25.042Z,736.00
2018-08-13T05:00:25.068Z,672.00
2018-08-13T05:01:25.101Z,628.00
2018-08-13T05:02:25.131Z,604.00
2018-08-13T05:03:25.160Z,580.00
2018-08-13T05:04:25.192Z,568.00
2018-08-13T05:05:25.222Z,564.00
2018-08-13T05:06:25.252Z,576.00
2018-08-13T05:07:25.358Z,616.00
2018-08-13T05:08:25.310Z,672.00
2018-08-13T05:09:25.345Z,736.00
2018-08-13T05:10:25.372Z,800.00
2018-08-13T05:11:25.406Z,876.00
2018-08-13T05:12:25.435Z,976.00
2018-08-13T05:13:25.463Z,1080.00
2018-08-13T05:14:25.497Z,1172.00
2018-08-13T05:15:25.526Z,1256.00
2018-08-13T05:16:25.554Z,1304.00
2018-08-13T05:17:25.588Z,1336.00
2018-08-13T05:18:25.619Z,1380.00
2018-08-13T05:19:25.645Z,1428.00
2018-08-13T05:20:25.678Z,1464.00
2018-08-13T05:21:25.708Z,1500.00
2018-08-13T05:22:25.743Z,1536.00
2018-08-13T05:23:25.770Z,1600.00
2018-08-13T05:24:25.800Z,1700.00
2018-08-13T05:25:25.830Z,1820.00
2018-08-13T05:26:25.860Z,1920.00
2018-08-13T05:27:25.888Z,1984.00
2018-08-13T05:28:25.921Z,1984.00
2018-08-13T05:29:25.952Z,1952.00
2018-08-13T05:30:26.019Z,1892.00
2018-08-13T05:31:26.010Z,1840.00
2018-08-13T05:32:26.042Z,1816.00
2018-08-13T05:33:26.072Z,1800.00
2018-08-13T05:34:26.103Z,1776.00
2018-08-13T05:35:26.130Z,1740.00
2018-08-13T05:36:26.164Z,1704.00
2018-08-13T05:37:26.191Z,1672.00
2018-08-13T05:38:26.224Z,1656.00
2018-08-13T05:39:26.254Z,1656.00
2018-08-13T05:40:26.284Z,1672.00
2018-08-13T05:41:26.313Z,1696.00
2018-08-13T05:42:26.344Z,1720.00
2018-08-13T05:43:26.374Z,1740.00
2018-08-13T05:44:26.405Z,1748.00
2018-08-13T05:45:26.437Z,1748.00
2018-08-13T05:46:26.465Z,1764.00
2018-08-13T05:47:26.493Z,1812.00
2018-08-13T05:48:26.529Z,1900.00
2018-08-13T05:49:26.556Z,1996.00
2018-08-13T05:50:26.588Z,2084.00
2018-08-13T05:51:26.617Z,2144.00
2018-08-13T05:52:26.653Z,2192.00
2018-08-13T05:53:26.678Z,2232.00
2018-08-13T05:54:26.711Z,2276.00
2018-08-13T05:55:26.739Z,2312.00
2018-08-13T05:56:26.772Z,2340.00
2018-08-13T05:57:26.804Z,2348.00
2018-08-13T05:58:26.834Z,2352.00
2018-08-13T05:59:26.867Z,2336.00
2018-08-13T06:00:26.893Z,2304.00
2018-08-13T06:01:26.925Z,2244.00
2018-08-13T06:02:26.953Z,2192.00
2018-08-13T06:03:26.985Z,2164.00
2018-08-13T06:04:27.014Z,2176.00
2018-08-13T06:05:27.044Z,2216.00
2018-08-13T06:06:27.081Z,2284.00
2018-08-13T06:07:27.108Z,2340.00
2018-08-13T06:08:27.137Z,2404.00
2018-08-13T06:09:27.169Z,2452.00
2018-08-13T06:10:27.206Z,2480.00
2018-08-13T06:11:27.386Z,2488.00
2018-08-13T06:12:27.258Z,2496.00
2018-08-13T06:13:27.293Z,2516.00
2018-08-13T06:14:27.320Z,2552.00
2018-08-13T06:15:27.349Z,2608.00
2018-08-13T06:16:27.384Z,2700.00
2018-08-13T06:17:27.412Z,2840.00
2018-08-13T06:18:27.447Z,3048.00
2018-08-13T06:19:27.473Z,3296.00
2018-08-13T06:20:27.505Z,3584.00
2018-08-13T06:21:27.537Z,3892.00
2018-08-13T06:22:27.567Z,4216.00
2018-08-13T06:23:27.597Z,4528.00
2018-08-13T06:24:27.627Z,4796.00
2018-08-13T06:25:27.657Z,5008.00
2018-08-13T06:26:27.689Z,5180.00
2018-08-13T06:27:27.718Z,5332.00
2018-08-13T06:28:27.751Z,5472.00
2018-08-13T06:29:27.780Z,5588.00
2018-08-13T06:30:27.811Z,5708.00
2018-08-13T06:31:27.841Z,5820.00
2018-08-13T06:32:27.875Z,5892.00
2018-08-13T06:33:27.904Z,5860.00
2018-08-13T06:34:27.934Z,5644.00
2018-08-13T06:35:27.965Z,4900.00
2018-08-13T06:36:27.998Z,3836.00
2018-08-13T06:37:28.026Z,3160.00
2018-08-13T06:38:28.057Z,2940.00
2018-08-13T06:39:28.093Z,3056.00
2018-08-13T06:40:28.119Z,3344.00
2018-08-13T06:41:28.151Z,3612.00
2018-08-13T06:42:28.180Z,3768.00
2018-08-13T06:43:28.209Z,3992.00
2018-08-13T06:44:28.242Z,4192.00
2018-08-13T06:45:28.274Z,4244.00
2018-08-13T06:46:28.304Z,4252.00
2018-08-13T06:47:28.336Z,4348.00
2018-08-13T06:48:28.365Z,4676.00
2018-08-13T06:49:28.394Z,5056.00
2018-08-13T06:50:28.429Z,5320.00
2018-08-13T06:51:28.454Z,5416.00
2018-08-13T06:52:28.485Z,5320.00
2018-08-13T06:53:28.518Z,5116.00
2018-08-13T06:54:28.546Z,5016.00
2018-08-13T06:55:28.578Z,4916.00
2018-08-13T06:56:28.610Z,4692.00
2018-08-13T06:57:28.641Z,4448.00
2018-08-13T06:58:28.673Z,4196.00
2018-08-13T06:59:28.700Z,4080.00
2018-08-13T07:00:28.731Z,4192.00
2018-08-13T07:01:28.766Z,4392.00
2018-08-13T07:02:28.797Z,4652.00
2018-08-13T07:03:28.827Z,4856.00
2018-08-13T07:04:28.854Z,5044.00
2018-08-13T07:05:28.886Z,5248.00
2018-08-13T07:06:28.919Z,5428.00
2018-08-13T07:07:28.950Z,5628.00
2018-08-13T07:08:28.976Z,5764.00
2018-08-13T07:09:29.009Z,5632.00
2018-08-13T07:10:29.039Z,5448.00
2018-08-13T07:11:29.069Z,5124.00
2018-08-13T07:12:29.101Z,4748.00
2018-08-13T07:13:29.129Z,4500.00
2018-08-13T07:14:29.163Z,4408.00
2018-08-13T07:15:29.191Z,4360.00
2018-08-13T07:16:29.222Z,4300.00
2018-08-13T07:17:29.253Z,4128.00
2018-08-13T07:18:29.286Z,3876.00
2018-08-13T07:19:29.313Z,3532.00
2018-08-13T07:20:29.344Z,3200.00
2018-08-13T07:21:29.385Z,3036.00
2018-08-13T07:22:29.503Z,3044.00
2018-08-13T07:23:29.438Z,3132.00
2018-08-13T07:24:29.470Z,3232.00
2018-08-13T07:25:29.496Z,3284.00
2018-08-13T07:26:29.530Z,3344.00
2018-08-13T07:27:29.561Z,3412.00
2018-08-13T07:28:29.590Z,3492.00
2018-08-13T07:29:29.622Z,3520.00
2018-08-13T07:30:29.652Z,3488.00
2018-08-13T07:31:29.684Z,3476.00
2018-08-13T07:32:29.712Z,3464.00
2018-08-13T07:33:29.859Z,3436.00
2018-08-13T07:34:29.775Z,3468.00
2018-08-13T07:35:29.807Z,3520.00
2018-08-13T07:36:29.835Z,3576.00
2018-08-13T07:37:29.866Z,3720.00
2018-08-13T07:38:29.903Z,3896.00
2018-08-13T07:39:30.012Z,4016.00
2018-08-13T07:40:29.958Z,3996.00
2018-08-13T07:41:29.989Z,3892.00
2018-08-13T07:42:30.020Z,3780.00
2018-08-13T07:43:30.050Z,3704.00
2018-08-13T07:44:30.081Z,3680.00
2018-08-13T07:45:30.120Z,3676.00
2018-08-13T07:46:30.154Z,3676.00
2018-08-13T07:47:30.173Z,3720.00
2018-08-13T07:48:30.206Z,3820.00
2018-08-13T07:49:30.237Z,3956.00
2018-08-13T07:50:30.265Z,4160.00
2018-08-13T07:51:30.299Z,4496.00
2018-08-13T07:52:30.326Z,5012.00
2018-08-13T07:53:30.357Z,5772.00
2018-08-13T07:54:30.387Z,6752.00
2018-08-13T07:55:30.418Z,7828.00
2018-08-13T07:56:30.462Z,8868.00
2018-08-13T07:57:30.479Z,9800.00
2018-08-13T07:58:30.512Z,10512.00
2018-08-13T07:59:30.542Z,10964.00
2018-08-13T08:00:30.573Z,11212.00
2018-08-13T08:01:30.603Z,11716.00
2018-08-13T08:02:30.637Z,12372.00
2018-08-13T08:03:30.663Z,13152.00
2018-08-13T08:04:30.697Z,13892.00
2018-08-13T08:05:30.732Z,14540.00
2018-08-13T08:06:30.759Z,15088.00
2018-08-13T08:07:30.788Z,16868.00
2018-08-13T08:08:30.821Z,17040.00
2018-08-13T08:09:30.852Z,16684.00
2018-08-13T08:10:30.881Z,14924.00
2018-08-13T08:11:30.911Z,13876.00
2018-08-13T08:12:30.946Z,14332.00
2018-08-13T08:13:30.975Z,16484.00
2018-08-13T08:14:31.006Z,16124.00
2018-08-13T08:15:31.038Z,15212.00
2018-08-13T08:16:31.072Z,16340.00
2018-08-13T08:17:31.104Z,19072.00
2018-08-13T08:18:31.131Z,16852.00
2018-08-13T08:19:31.164Z,22912.00
2018-08-13T08:20:31.195Z,16624.00
2018-08-13T08:21:31.225Z,18944.00
2018-08-13T08:22:31.259Z,14780.00
2018-08-13T08:23:31.289Z,15640.00
2018-08-13T08:24:31.322Z,15704.00
2018-08-13T08:25:31.351Z,14648.00
2018-08-13T08:26:31.387Z,14624.00
2018-08-13T08:27:31.416Z,14324.00
2018-08-13T08:28:31.452Z,13100.00
2018-08-13T08:29:31.479Z,11680.00
2018-08-13T08:30:31.513Z,11008.00
2018-08-13T08:31:31.544Z,10308.00
2018-08-13T08:32:31.576Z,9888.00
2018-08-13T08:33:31.609Z,9588.00
2018-08-13T08:34:31.638Z,9136.00
2018-08-13T08:35:31.671Z,8700.00
2018-08-13T08:36:31.703Z,8172.00
2018-08-13T08:37:31.735Z,8076.00
2018-08-13T08:38:31.765Z,8152.00
2018-08-13T08:39:31.798Z,8504.00
2018-08-13T08:40:31.838Z,8600.00
2018-08-13T08:41:31.860Z,7864.00
2018-08-13T08:42:31.892Z,6652.00
2018-08-13T08:43:31.926Z,5912.00
2018-08-13T08:44:31.958Z,5592.00
2018-08-13T08:45:31.987Z,5564.00
2018-08-13T08:46:32.020Z,5760.00
2018-08-13T08:47:32.052Z,6124.00
2018-08-13T08:48:32.085Z,6540.00
2018-08-13T08:49:32.114Z,6952.00
2018-08-13T08:50:32.149Z,7152.00
2018-08-13T08:51:32.178Z,7140.00
2018-08-13T08:52:32.248Z,6892.00
2018-08-13T08:53:32.295Z,6016.00
2018-08-13T08:54:32.272Z,5616.00
2018-08-13T08:55:32.303Z,5568.00
2018-08-13T08:56:32.337Z,5692.00
2018-08-13T08:57:32.367Z,5656.00
2018-08-13T08:58:32.402Z,5756.00
2018-08-13T08:59:32.428Z,5988.00
2018-08-13T09:00:32.463Z,6324.00
2018-08-13T09:01:32.493Z,6696.00
2018-08-13T09:02:32.527Z,7140.00
2018-08-13T09:03:32.559Z,7600.00
2018-08-13T09:04:32.596Z,7992.00
2018-08-13T09:05:32.619Z,8160.00
2018-08-13T09:06:32.651Z,7976.00
2018-08-13T09:07:32.684Z,7556.00
2018-08-13T09:08:32.712Z,7156.00
2018-08-13T09:09:32.745Z,7008.00
2018-08-13T09:10:32.779Z,7112.00
2018-08-13T09:11:32.808Z,7388.00
2018-08-13T09:12:32.838Z,7740.00
2018-08-13T09:13:32.873Z,8032.00
2018-08-13T09:14:32.904Z,8148.00
2018-08-13T09:15:32.937Z,8000.00
2018-08-13T09:16:32.964Z,7672.00
2018-08-13T09:17:32.997Z,7416.00
2018-08-13T09:18:33.033Z,7344.00
2018-08-13T09:19:33.058Z,7604.00
2018-08-13T09:20:33.090Z,8112.00
2018-08-13T09:21:33.127Z,8720.00
2018-08-13T09:22:33.153Z,9148.00
2018-08-13T09:23:33.183Z,9296.00
2018-08-13T09:24:33.221Z,9228.00
2018-08-13T09:25:33.307Z,9100.00
2018-08-13T09:26:33.280Z,8864.00
2018-08-13T09:27:33.309Z,8472.00
2018-08-13T09:28:33.343Z,8128.00
2018-08-13T09:29:33.373Z,7704.00
2018-08-13T09:30:33.410Z,6976.00
2018-08-13T09:31:33.437Z,6452.00
2018-08-13T09:32:33.467Z,6400.00
2018-08-13T09:33:33.498Z,6692.00
2018-08-13T09:34:33.533Z,7012.00
2018-08-13T09:35:33.560Z,7316.00
2018-08-13T09:36:33.597Z,7476.00
2018-08-13T09:37:33.626Z,7484.00
2018-08-13T09:38:33.656Z,7256.00
2018-08-13T09:39:33.687Z,6748.00
2018-08-13T09:40:33.722Z,6244.00
2018-08-13T09:41:33.749Z,6076.00
2018-08-13T09:42:33.781Z,6088.00
2018-08-13T09:43:33.811Z,5968.00
2018-08-13T09:44:33.849Z,5724.00
2018-08-13T09:45:33.877Z,5680.00
2018-08-13T09:46:33.912Z,5804.00
2018-08-13T09:47:33.937Z,5888.00
2018-08-13T09:48:33.968Z,6068.00
2018-08-13T09:49:34.000Z,6508.00
2018-08-13T09:50:34.035Z,7240.00
2018-08-13T09:51:34.061Z,8308.00
2018-08-13T09:52:34.092Z,9456.00
2018-08-13T09:53:34.130Z,10560.00
2018-08-13T09:54:34.159Z,12036.00
2018-08-13T09:55:34.190Z,11896.00
2018-08-13T09:56:34.218Z,11208.00
2018-08-13T09:57:34.253Z,11268.00
2018-08-13T09:58:34.283Z,12736.00
2018-08-13T09:59:34.314Z,16356.00
2018-08-13T10:00:34.347Z,18272.00
2018-08-13T10:01:34.380Z,18944.00
2018-08-13T10:02:34.412Z,22560.00
2018-08-13T10:03:34.443Z,25312.00
2018-08-13T10:04:34.475Z,41408.00
2018-08-13T10:05:34.505Z,57856.00
2018-08-13T10:06:37.162Z,61632.00
2018-08-13T10:07:34.569Z,34208.00
2018-08-13T10:08:34.601Z,32064.00
2018-08-13T10:09:34.631Z,30912.00
2018-08-13T10:10:34.666Z,40928.00
2018-08-13T10:11:34.699Z,42784.00
2018-08-13T10:12:34.729Z,37504.00
2018-08-13T10:13:34.762Z,74464.00
2018-08-13T10:14:34.795Z,103424.00
2018-08-13T10:15:34.829Z,79712.00
2018-08-13T10:16:34.860Z,34336.00
2018-08-13T10:17:34.985Z,43936.00
2018-08-13T10:18:34.930Z,61088.00
2018-08-13T10:19:34.964Z,96160.00
2018-08-13T10:20:34.996Z,90816.00
2018-08-13T10:21:35.233Z,36256.00
2018-08-13T10:22:35.064Z,32960.00
2018-08-13T10:23:35.100Z,39872.00
2018-08-13T10:24:35.134Z,52704.00
2018-08-13T10:25:35.171Z,105152.00
2018-08-13T10:26:35.207Z,64192.00
2018-08-13T10:27:35.240Z,26464.00
2018-08-13T10:28:35.279Z,25024.00
2018-08-13T10:29:35.311Z,25728.00
2018-08-13T10:30:35.349Z,77280.00
2018-08-13T10:31:35.381Z,47520.00
2018-08-13T10:32:35.421Z,25056.00
2018-08-13T10:33:35.456Z,20672.00
2018-08-13T10:34:35.491Z,39808.00
2018-08-13T10:35:35.526Z,94112.00
2018-08-13T10:36:35.566Z,94912.00
2018-08-13T10:37:35.604Z,95008.00
2018-08-13T10:38:35.640Z,94016.00
2018-08-13T10:39:35.671Z,63008.00
2018-08-13T10:40:35.710Z,95008.00
2018-08-13T10:41:35.748Z,28320.00
2018-08-13T10:42:35.785Z,91488.00
2018-08-13T10:43:35.875Z,91648.00
2018-08-13T10:44:35.856Z,94432.00
2018-08-13T10:45:35.892Z,94048.00
2018-08-13T10:46:35.930Z,96480.00
2018-08-13T10:47:35.967Z,77216.00
2018-08-13T10:48:36.002Z,86080.00
2018-08-13T10:49:36.095Z,70432.00
2018-08-13T10:50:36.079Z,43616.00
2018-08-13T10:51:36.116Z,67840.00
2018-08-13T10:52:36.155Z,30496.00
2018-08-13T10:53:36.197Z,26400.00
2018-08-13T10:54:36.230Z,39744.00
2018-08-13T10:55:36.269Z,27296.00
2018-08-13T10:56:36.310Z,30944.00
2018-08-13T10:57:36.352Z,29184.00
2018-08-13T10:58:36.386Z,30976.00
2018-08-13T10:59:36.421Z,31328.00
2018-08-13T11:00:36.462Z,27424.00
2018-08-13T11:01:36.498Z,28704.00
2018-08-13T11:02:36.542Z,30688.00
2018-08-13T11:03:36.574Z,39968.00
2018-08-13T11:04:36.612Z,26240.00
2018-08-13T11:05:36.650Z,20128.00
2018-08-13T11:06:36.685Z,19328.00
2018-08-13T11:07:36.726Z,24032.00
2018-08-13T11:08:36.763Z,27328.00
2018-08-13T11:09:36.797Z,40704.00
2018-08-13T11:10:36.836Z,49568.00
2018-08-13T11:11:36.873Z,45152.00
2018-08-13T11:12:36.911Z,43072.00
2018-08-13T11:13:37.071Z,35200.00
2018-08-13T11:14:36.984Z,54976.00
2018-08-13T11:15:37.021Z,36352.00
2018-08-13T11:16:37.057Z,28416.00
2018-08-13T11:17:37.092Z,75712.00
2018-08-13T11:18:37.143Z,46432.00
2018-08-13T11:19:37.168Z,55520.00
2018-08-13T11:20:37.203Z,28512.00
2018-08-13T11:21:37.245Z,23360.00
2018-08-13T11:22:37.278Z,23712.00
2018-08-13T11:23:37.312Z,22688.00
2018-08-13T11:24:37.350Z,22176.00
2018-08-13T11:25:37.385Z,21568.00
2018-08-13T11:26:37.423Z,22048.00
2018-08-13T11:27:37.459Z,24704.00
2018-08-13T11:28:37.523Z,71296.00
2018-08-13T11:29:37.531Z,92000.00
2018-08-13T11:30:37.568Z,68768.00
2018-08-13T11:31:37.603Z,74656.00
2018-08-13T11:32:37.640Z,99008.00
2018-08-13T11:33:37.680Z,31456.00
2018-08-13T11:34:37.713Z,26112.00
2018-08-13T11:35:37.752Z,27776.00
2018-08-13T11:36:37.789Z,31840.00
2018-08-13T11:37:37.826Z,23776.00
2018-08-13T11:38:37.859Z,24064.00
2018-08-13T11:39:37.898Z,32768.00
2018-08-13T11:40:37.991Z,74720.00
2018-08-13T11:41:37.968Z,34112.00
2018-08-13T11:42:38.004Z,35488.00
2018-08-13T11:43:38.043Z,51360.00
2018-08-13T11:44:38.078Z,27360.00
2018-08-13T11:45:38.112Z,24736.00
2018-08-13T11:46:38.149Z,29248.00
2018-08-13T11:47:38.186Z,37696.00
2018-08-13T11:48:38.223Z,88640.00
2018-08-13T11:49:38.268Z,77184.00
2018-08-13T11:50:38.300Z,72032.00
2018-08-13T11:51:38.329Z,58656.00
2018-08-13T11:52:38.368Z,58336.00
2018-08-13T11:53:38.403Z,24128.00
2018-08-13T11:54:38.439Z,70176.00
2018-08-13T11:55:38.473Z,69120.00
2018-08-13T11:56:38.513Z,40160.00
2018-08-13T11:57:38.549Z,28928.00
2018-08-13T11:58:38.585Z,40800.00
2018-08-13T11:59:38.620Z,28160.00
2018-08-13T12:00:38.658Z,27712.00
2018-08-13T12:01:38.693Z,32192.00
2018-08-13T12:02:38.731Z,36064.00
2018-08-13T12:03:38.766Z,32768.00
2018-08-13T12:04:38.804Z,34560.00
2018-08-13T12:05:38.843Z,33568.00
2018-08-13T12:06:38.877Z,26368.00
2018-08-13T12:07:38.917Z,26528.00
2018-08-13T12:08:38.954Z,31360.00
2018-08-13T12:09:38.989Z,31936.00
2018-08-13T12:10:39.029Z,25216.00
2018-08-13T12:11:39.064Z,16844.00
2018-08-13T12:12:39.101Z,14188.00
2018-08-13T12:13:39.141Z,14508.00
2018-08-13T12:14:39.189Z,25952.00
2018-08-13T12:15:39.212Z,18080.00
2018-08-13T12:16:39.250Z,19968.00
2018-08-13T12:17:39.288Z,17856.00
2018-08-13T12:18:39.325Z,20896.00
2018-08-13T12:19:39.461Z,21312.00
2018-08-13T12:20:39.400Z,20224.00
2018-08-13T12:21:39.438Z,21888.00
2018-08-13T12:22:39.474Z,21088.00
2018-08-13T12:23:39.512Z,13932.00